createdAt,value
2023-04-16T00:00:13.774Z,6.72
2023-04-16T00:02:41.649Z,7.65
2023-04-16T00:05:09.816Z,7.18
2023-04-16T00:07:37.724Z,6.95
2023-04-16T00:10:06.694Z,7.15
2023-04-16T00:12:34.438Z,7.30
2023-04-16T00:15:02.427Z,7.00
2023-04-16T00:17:33.136Z,7.05
2023-04-16T00:20:00.826Z,6.70
2023-04-16T00:22:28.641Z,6.72
2023-04-16T00:24:56.980Z,6.25
2023-04-16T00:27:24.552Z,6.28
2023-04-16T00:29:52.423Z,6.25
2023-04-16T00:32:20.221Z,6.63
2023-04-16T00:34:48.485Z,7.20
2023-04-16T00:37:16.244Z,7.25
2023-04-16T00:39:44.030Z,6.80
2023-04-16T00:42:14.853Z,7.93
2023-04-16T00:44:42.400Z,8.55
2023-04-16T00:47:10.463Z,7.57
2023-04-16T00:49:38.286Z,8.00
2023-04-16T00:52:08.975Z,7.57
2023-04-16T00:54:36.675Z,7.18
2023-04-16T00:57:04.831Z,7.50
2023-04-16T00:59:33.532Z,8.18
2023-04-16T01:02:04.039Z,8.20
2023-04-16T01:04:35.369Z,6.68
2023-04-16T01:07:03.288Z,7.10
2023-04-16T01:09:31.139Z,7.53
2023-04-16T01:11:58.793Z,6.25
2023-04-16T01:14:26.521Z,7.32
2023-04-16T01:16:54.765Z,6.60
2023-04-16T01:19:22.543Z,6.65
2023-04-16T01:21:52.459Z,7.63
2023-04-16T01:24:23.823Z,6.68
2023-04-16T01:26:51.716Z,6.20
2023-04-16T01:29:19.598Z,6.30
2023-04-16T01:31:49.677Z,5.85
2023-04-16T01:34:26.169Z,7.25
2023-04-16T01:36:54.025Z,6.70
2023-04-16T01:39:21.862Z,6.20
2023-04-16T01:41:50.080Z,6.05
2023-04-16T01:44:18.140Z,6.85
2023-04-16T01:46:47.070Z,6.70
2023-04-16T01:49:16.630Z,5.63
2023-04-16T01:51:45.133Z,5.72
2023-04-16T01:54:12.981Z,5.50
2023-04-16T01:56:40.654Z,6.38
2023-04-16T01:59:08.608Z,5.72
2023-04-16T02:01:42.336Z,5.38
2023-04-16T02:04:10.902Z,5.60
2023-04-16T02:06:39.816Z,6.05
2023-04-16T02:09:07.803Z,5.55
2023-04-16T02:11:36.998Z,5.97
2023-04-16T02:14:04.793Z,5.63
2023-04-16T02:16:32.428Z,6.35
2023-04-16T02:19:12.908Z,6.10
2023-04-16T02:21:42.225Z,5.80
2023-04-16T02:24:10.198Z,6.10
2023-04-16T02:26:38.128Z,6.05
2023-04-16T02:29:12.550Z,5.60
2023-04-16T02:31:44.930Z,5.40
2023-04-16T02:34:14.280Z,6.05
2023-04-16T02:36:42.902Z,5.65
2023-04-16T02:39:10.781Z,5.45
2023-04-16T02:41:38.794Z,5.22
2023-04-16T02:44:06.877Z,5.40
2023-04-16T02:46:34.663Z,5.90
2023-04-16T02:49:02.490Z,5.53
2023-04-16T02:51:30.020Z,5.30
2023-04-16T02:53:59.784Z,5.13
2023-04-16T02:56:27.347Z,5.82
2023-04-16T02:58:54.999Z,5.60
2023-04-16T03:01:22.932Z,5.25
2023-04-16T03:03:50.777Z,6.25
2023-04-16T03:06:18.341Z,5.45
2023-04-16T03:08:46.076Z,6.15
2023-04-16T03:11:13.594Z,5.07
2023-04-16T03:13:41.388Z,6.05
2023-04-16T03:16:09.477Z,5.72
2023-04-16T03:18:37.279Z,5.70
2023-04-16T03:21:05.758Z,6.30
2023-04-16T03:23:33.928Z,5.55
2023-04-16T03:26:01.476Z,6.18
2023-04-16T03:28:29.906Z,6.15
2023-04-16T03:30:57.628Z,6.35
2023-04-16T03:33:25.302Z,6.03
2023-04-16T03:35:59.781Z,5.53
2023-04-16T03:38:31.114Z,6.00
2023-04-16T03:40:59.849Z,5.68
2023-04-16T03:43:28.002Z,5.72
2023-04-16T03:45:55.626Z,5.80
2023-04-16T03:48:24.645Z,5.13
2023-04-16T03:50:53.852Z,6.30
2023-04-16T03:53:24.682Z,6.25
2023-04-16T03:55:53.082Z,5.78
2023-04-16T03:58:22.144Z,5.68
2023-04-16T04:00:49.820Z,6.53
2023-04-16T04:03:19.210Z,6.38
2023-04-16T04:05:49.585Z,5.70
2023-04-16T04:08:24.513Z,6.00
2023-04-16T04:10:52.671Z,6.30
2023-04-16T04:13:22.536Z,5.88
2023-04-16T04:15:52.183Z,5.90
2023-04-16T04:18:20.651Z,6.15
2023-04-16T04:20:48.342Z,5.60
2023-04-16T04:23:18.484Z,6.25
2023-04-16T04:25:47.982Z,6.07
2023-04-16T04:28:16.335Z,6.22
2023-04-16T04:30:44.247Z,5.65
2023-04-16T04:33:13.367Z,5.93
2023-04-16T04:35:41.118Z,5.32
2023-04-16T04:38:09.626Z,5.47
2023-04-16T04:40:37.125Z,6.40
2023-04-16T04:43:05.144Z,6.10
2023-04-16T04:45:33.456Z,6.00
2023-04-16T04:48:01.191Z,5.80
2023-04-16T04:50:29.926Z,5.70
2023-04-16T04:53:02.697Z,5.75
2023-04-16T04:55:30.514Z,6.13
2023-04-16T04:57:59.177Z,5.75
2023-04-16T05:00:27.298Z,5.15
2023-04-16T05:02:57.235Z,5.60
2023-04-16T05:05:25.232Z,5.60
2023-04-16T05:07:52.912Z,5.55
2023-04-16T05:10:20.625Z,5.88
2023-04-16T05:12:49.167Z,5.85
2023-04-16T05:15:17.810Z,6.13
2023-04-16T05:17:45.800Z,5.50
2023-04-16T05:20:14.886Z,5.05
2023-04-16T05:22:42.496Z,4.80
2023-04-16T05:25:10.342Z,5.47
2023-04-16T05:27:38.600Z,5.78
2023-04-16T05:30:07.360Z,5.55
2023-04-16T05:32:34.825Z,4.63
2023-04-16T05:35:02.718Z,5.18
2023-04-16T05:37:30.678Z,4.93
2023-04-16T05:40:01.122Z,5.60
2023-04-16T05:42:28.838Z,5.45
2023-04-16T05:44:56.531Z,4.72
2023-04-16T05:47:25.007Z,5.18
2023-04-16T05:49:52.684Z,5.50
2023-04-16T05:52:20.548Z,5.30
2023-04-16T05:54:48.296Z,5.13
2023-04-16T05:57:15.977Z,4.85
2023-04-16T05:59:43.742Z,5.13
2023-04-16T06:02:11.484Z,4.68
2023-04-16T06:04:39.125Z,4.80
2023-04-16T06:07:06.597Z,4.70
2023-04-16T06:09:34.114Z,4.93
2023-04-16T06:12:03.355Z,5.03
2023-04-16T06:14:30.895Z,4.93
2023-04-16T06:16:58.554Z,4.05
2023-04-16T06:19:26.187Z,4.15
2023-04-16T06:21:54.202Z,4.15
2023-04-16T06:24:21.750Z,4.03
2023-04-16T06:26:49.313Z,4.20
2023-04-16T06:29:16.767Z,4.60
2023-04-16T06:31:44.336Z,4.88
2023-04-16T06:34:14.761Z,4.15
2023-04-16T06:36:42.547Z,4.20
2023-04-16T06:39:10.337Z,4.45
2023-04-16T06:41:38.080Z,4.40
2023-04-16T06:44:06.145Z,4.43
2023-04-16T06:46:33.881Z,4.70
2023-04-16T06:49:01.582Z,4.20
2023-04-16T06:51:29.273Z,3.70
2023-04-16T06:53:56.820Z,4.50
2023-04-16T06:56:24.537Z,3.72
2023-04-16T06:58:52.036Z,3.95
2023-04-16T07:01:19.619Z,4.72
2023-04-16T07:03:47.248Z,3.80
2023-04-16T07:06:15.101Z,3.85
2023-04-16T07:08:42.661Z,3.95
2023-04-16T07:11:10.234Z,4.03
2023-04-16T07:13:37.738Z,4.13
2023-04-16T07:16:06.164Z,4.18
2023-04-16T07:18:33.795Z,3.95
2023-04-16T07:21:01.350Z,4.20
2023-04-16T07:23:29.139Z,4.30
2023-04-16T07:25:56.795Z,4.05
2023-04-16T07:28:25.486Z,3.70
2023-04-16T07:30:53.264Z,4.18
2023-04-16T07:33:20.967Z,4.40
2023-04-16T07:35:48.546Z,4.30
2023-04-16T07:38:16.803Z,4.93
2023-04-16T07:40:44.488Z,4.28
2023-04-16T07:43:12.417Z,4.30
2023-04-16T07:45:41.341Z,5.28
2023-04-16T07:48:09.233Z,4.30
2023-04-16T07:50:37.282Z,4.53
2023-04-16T07:53:06.169Z,4.35
2023-04-16T07:55:34.219Z,4.35
2023-04-16T07:58:03.111Z,4.50
2023-04-16T08:00:30.656Z,4.30
2023-04-16T08:02:58.704Z,4.50
2023-04-16T08:05:26.396Z,4.07
2023-04-16T08:07:53.999Z,4.53
2023-04-16T08:10:21.497Z,5.10
2023-04-16T08:12:49.233Z,6.22
2023-04-16T08:15:16.995Z,6.65
2023-04-16T08:17:50.608Z,8.20
2023-04-16T08:20:19.767Z,7.57
2023-04-16T08:22:48.398Z,7.15
2023-04-16T08:25:16.454Z,8.23
2023-04-16T08:27:47.078Z,8.73
2023-04-16T08:30:16.796Z,7.63
2023-04-16T08:32:47.963Z,8.48
2023-04-16T08:35:17.259Z,8.23
2023-04-16T08:37:45.148Z,8.45
2023-04-16T08:40:13.021Z,7.88
2023-04-16T08:42:46.532Z,7.57
2023-04-16T08:45:18.595Z,6.95
2023-04-16T08:47:51.319Z,6.63
2023-04-16T08:50:27.237Z,6.90
2023-04-16T08:53:02.209Z,7.38
2023-04-16T08:55:53.999Z,5.88
2023-04-16T08:58:23.168Z,6.35
2023-04-16T09:00:51.412Z,6.32
2023-04-16T09:03:24.922Z,6.05
2023-04-16T09:05:53.768Z,6.30
2023-04-16T09:08:21.855Z,6.50
2023-04-16T09:10:51.057Z,6.05
2023-04-16T09:13:21.022Z,6.80
2023-04-16T09:15:53.657Z,6.32
2023-04-16T09:18:21.930Z,6.32
2023-04-16T09:20:54.712Z,5.72
2023-04-16T09:23:22.663Z,6.45
2023-04-16T09:25:50.291Z,5.47
2023-04-16T09:28:45.608Z,7.00
2023-04-16T09:31:19.133Z,5.55
2023-04-16T09:34:07.874Z,5.85
2023-04-16T09:36:37.176Z,5.60
2023-04-16T09:39:05.169Z,5.07
2023-04-16T09:41:39.845Z,5.43
2023-04-16T09:44:07.683Z,5.28
2023-04-16T09:46:41.896Z,5.80
2023-04-16T09:49:15.052Z,5.60
2023-04-16T09:51:44.069Z,5.15
2023-04-16T09:54:14.690Z,5.90
2023-04-16T09:56:47.339Z,5.82
2023-04-16T09:59:22.824Z,5.53
2023-04-16T10:01:53.692Z,5.10
2023-04-16T10:04:54.289Z,4.90
2023-04-16T10:07:23.428Z,5.10
2023-04-16T10:09:52.808Z,5.55
2023-04-16T10:12:21.497Z,5.45
2023-04-16T10:14:51.377Z,5.03
2023-04-16T10:17:24.130Z,6.05
2023-04-16T10:19:56.858Z,5.40
2023-04-16T10:22:24.806Z,5.88
2023-04-16T10:24:53.899Z,5.20
2023-04-16T10:27:21.828Z,6.20
2023-04-16T10:29:49.996Z,5.90
2023-04-16T10:32:20.968Z,5.72
2023-04-16T10:34:48.723Z,5.68
2023-04-16T10:37:18.312Z,6.28
2023-04-16T10:39:46.431Z,6.78
2023-04-16T10:42:16.180Z,5.60
2023-04-16T10:44:45.494Z,6.55
2023-04-16T10:47:14.697Z,7.43
2023-04-16T10:49:44.161Z,7.47
2023-04-16T10:52:17.221Z,6.50
2023-04-16T10:54:45.295Z,6.55
2023-04-16T10:57:20.086Z,7.65
2023-04-16T10:59:49.722Z,7.18
2023-04-16T11:02:19.585Z,6.55
2023-04-16T11:09:03.914Z,7.28
2023-04-16T11:11:40.046Z,8.43
2023-04-16T11:14:09.833Z,7.43
2023-04-16T11:16:42.255Z,7.50
2023-04-16T11:19:17.884Z,8.68
2023-04-16T11:21:46.319Z,8.95
2023-04-16T11:24:13.983Z,8.43
2023-04-16T11:26:41.568Z,8.98
2023-04-16T11:29:16.164Z,9.73
2023-04-16T11:31:51.197Z,9.40
2023-04-16T11:34:19.619Z,9.68
2023-04-16T11:36:52.066Z,9.88
2023-04-16T11:39:20.844Z,8.68
2023-04-16T11:41:50.777Z,9.60
2023-04-16T11:44:26.578Z,9.50
2023-04-16T11:46:54.851Z,20.38
2023-04-16T11:49:31.970Z,13.27
2023-04-16T11:52:00.263Z,11.27
2023-04-16T11:54:34.990Z,10.68
2023-04-16T11:57:04.818Z,11.27
2023-04-16T11:59:33.543Z,10.82
2023-04-16T12:02:01.294Z,12.07
2023-04-16T12:04:29.768Z,9.57
2023-04-16T12:07:14.933Z,10.55
2023-04-16T12:09:44.167Z,10.32
2023-04-16T12:12:40.405Z,9.85
2023-04-16T12:15:09.241Z,10.38
2023-04-16T12:17:39.012Z,10.85
2023-04-16T12:20:15.188Z,10.90
2023-04-16T12:22:49.855Z,10.30
2023-04-16T12:25:18.817Z,11.38
2023-04-16T12:27:54.123Z,11.45
2023-04-16T12:30:27.100Z,10.98
2023-04-16T12:33:18.869Z,10.60
2023-04-16T12:35:46.994Z,10.98
2023-04-16T12:38:15.680Z,12.35
2023-04-16T12:40:43.787Z,12.25
2023-04-16T12:43:11.463Z,12.43
2023-04-16T12:45:40.874Z,11.32
2023-04-16T12:48:09.264Z,11.88
2023-04-16T12:50:37.092Z,11.43
2023-04-16T12:53:06.186Z,12.05
2023-04-16T12:55:33.827Z,12.10
2023-04-16T12:58:01.757Z,11.85
2023-04-16T13:00:29.206Z,11.10
2023-04-16T13:03:00.167Z,12.18
2023-04-16T13:05:28.130Z,11.75
2023-04-16T13:07:55.956Z,10.65
2023-04-16T13:10:23.805Z,11.30
2023-04-16T13:12:52.748Z,10.70
2023-04-16T13:15:20.569Z,11.65
2023-04-16T13:17:48.209Z,11.20
2023-04-16T13:20:18.563Z,11.18
2023-04-16T13:22:46.614Z,11.05
2023-04-16T13:25:14.430Z,11.05
2023-04-16T13:27:42.890Z,10.25
2023-04-16T13:30:11.751Z,10.25
2023-04-16T13:32:40.849Z,10.27
2023-04-16T13:35:11.039Z,10.05
2023-04-16T13:37:38.860Z,10.10
2023-04-16T13:40:08.272Z,8.98
2023-04-16T13:42:39.137Z,9.90
2023-04-16T13:45:07.605Z,9.82
2023-04-16T13:47:35.700Z,9.98
2023-04-16T13:50:03.161Z,9.65
2023-04-16T13:52:30.624Z,10.10
2023-04-16T13:55:00.035Z,10.02
2023-04-16T13:57:28.729Z,8.55
2023-04-16T13:59:56.779Z,10.52
2023-04-16T14:02:26.224Z,8.70
2023-04-16T14:04:56.516Z,9.40
2023-04-16T14:07:30.023Z,10.23
2023-04-16T14:09:57.862Z,9.30
2023-04-16T14:12:25.708Z,11.40
2023-04-16T14:14:53.548Z,9.57
2023-04-16T14:17:21.237Z,10.10
2023-04-16T14:19:48.854Z,10.18
2023-04-16T14:22:18.215Z,10.57
2023-04-16T14:24:46.023Z,10.00
2023-04-16T14:27:17.136Z,9.63
2023-04-16T14:29:48.220Z,10.50
2023-04-16T14:32:17.389Z,10.38
2023-04-16T14:34:44.913Z,9.77
2023-04-16T14:37:12.607Z,9.63
2023-04-16T14:39:41.688Z,9.55
2023-04-16T14:42:09.253Z,10.02
2023-04-16T14:44:37.087Z,10.40
2023-04-16T14:47:04.784Z,9.38
2023-04-16T14:49:32.795Z,9.00
2023-04-16T14:52:03.069Z,9.63
2023-04-16T14:54:32.248Z,8.90
2023-04-16T14:57:00.358Z,8.73
2023-04-16T14:59:28.801Z,7.85
2023-04-16T15:01:57.418Z,8.95
2023-04-16T15:04:25.804Z,8.45
2023-04-16T15:09:22.982Z,8.98
2023-04-16T15:11:50.542Z,8.88
2023-04-16T15:14:19.521Z,8.48
2023-04-16T15:16:48.865Z,8.35
2023-04-16T15:19:16.536Z,7.88
2023-04-16T15:21:46.060Z,8.27
2023-04-16T15:24:15.147Z,8.60
2023-04-16T15:26:43.334Z,7.88
2023-04-16T15:29:10.925Z,7.50
2023-04-16T15:31:38.523Z,9.68
2023-04-16T15:34:06.326Z,12.75
2023-04-16T15:36:33.847Z,10.90
2023-04-16T15:39:01.890Z,10.73
2023-04-16T15:41:32.021Z,8.98
2023-04-16T15:43:59.639Z,9.05
2023-04-16T15:46:30.022Z,8.63
2023-04-16T15:48:57.806Z,8.88
2023-04-16T15:51:25.244Z,8.85
2023-04-16T15:53:53.742Z,8.10
2023-04-16T15:56:21.318Z,9.60
2023-04-16T15:58:52.798Z,8.05
2023-04-16T16:01:20.508Z,7.47
2023-04-16T16:03:48.929Z,7.97
2023-04-16T16:06:18.037Z,7.68
2023-04-16T16:08:45.619Z,8.05
2023-04-16T16:11:13.205Z,6.90
2023-04-16T16:13:46.638Z,7.18
2023-04-16T16:16:15.188Z,7.45
2023-04-16T16:18:42.870Z,7.70
2023-04-16T16:21:10.473Z,7.47
2023-04-16T16:23:38.155Z,6.65
2023-04-16T16:26:06.556Z,6.82
2023-04-16T16:28:37.720Z,9.18
2023-04-16T16:31:06.257Z,8.10
2023-04-16T16:33:33.913Z,8.07
2023-04-16T16:36:01.611Z,6.93
2023-04-16T16:38:29.162Z,6.78
2023-04-16T16:40:56.948Z,6.07
2023-04-16T16:43:24.681Z,6.35
2023-04-16T16:45:52.497Z,6.18
2023-04-16T16:48:20.124Z,6.82
2023-04-16T16:50:47.602Z,6.20
2023-04-16T16:53:15.259Z,6.80
2023-04-16T16:55:43.187Z,6.60
2023-04-16T16:58:11.476Z,7.05
2023-04-16T17:00:39.235Z,7.10
2023-04-16T17:03:08.719Z,6.22
2023-04-16T17:05:36.801Z,6.43
2023-04-16T17:08:06.985Z,5.85
2023-04-16T17:10:35.775Z,6.65
2023-04-16T17:13:03.332Z,6.30
2023-04-16T17:15:31.228Z,6.45
2023-04-16T17:17:59.179Z,8.60
2023-04-16T17:20:26.690Z,6.10
2023-04-16T17:22:54.692Z,6.65
2023-04-16T17:25:22.439Z,6.93
2023-04-16T17:27:50.020Z,6.53
2023-04-16T17:30:18.051Z,7.20
2023-04-16T17:32:46.650Z,7.10
2023-04-16T17:35:14.418Z,6.80
2023-04-16T17:37:42.493Z,6.18
2023-04-16T17:40:11.884Z,6.40
2023-04-16T17:42:39.650Z,6.32
2023-04-16T17:45:10.279Z,6.38
2023-04-16T17:47:38.002Z,7.07
2023-04-16T17:50:06.657Z,5.60
2023-04-16T17:52:38.102Z,5.68
2023-04-16T17:55:06.875Z,6.30
2023-04-16T17:57:34.646Z,6.45
2023-04-16T18:00:11.278Z,7.20
2023-04-16T18:02:42.432Z,5.97
2023-04-16T18:05:10.678Z,5.72
2023-04-16T18:07:39.482Z,5.82
2023-04-16T18:10:08.637Z,6.15
2023-04-16T18:12:36.294Z,6.15
2023-04-16T18:15:04.373Z,5.65
2023-04-16T18:17:32.171Z,5.88
2023-04-16T18:19:59.876Z,5.32
2023-04-16T18:22:28.839Z,5.32
2023-04-16T18:24:56.628Z,5.65
2023-04-16T18:27:27.249Z,4.88
2023-04-16T18:29:55.226Z,5.45
2023-04-16T18:32:23.192Z,5.35
2023-04-16T18:34:53.212Z,4.88
2023-04-16T18:37:21.297Z,5.10
2023-04-16T18:39:51.994Z,5.20
2023-04-16T18:42:19.660Z,5.15
2023-04-16T18:44:54.073Z,5.30
2023-04-16T18:47:21.762Z,5.53
2023-04-16T18:49:49.603Z,6.45
2023-04-16T18:52:17.213Z,6.07
2023-04-16T18:54:44.862Z,5.45
2023-04-16T18:57:12.455Z,4.80
2023-04-16T18:59:42.254Z,5.93
2023-04-16T19:02:10.260Z,5.15
2023-04-16T19:04:38.372Z,5.40
2023-04-16T19:07:06.062Z,6.00
2023-04-16T19:09:33.645Z,3.88
2023-04-16T19:12:02.126Z,5.07
2023-04-16T19:14:29.770Z,5.55
2023-04-16T19:16:57.456Z,5.30
2023-04-16T19:19:25.174Z,5.15
2023-04-16T19:21:52.661Z,5.25
2023-04-16T19:24:20.429Z,5.63
2023-04-16T19:26:47.871Z,4.97
2023-04-16T19:29:15.355Z,4.43
2023-04-16T19:31:43.080Z,5.20
2023-04-16T19:34:10.571Z,4.70
2023-04-16T19:36:38.169Z,5.93
2023-04-16T19:39:06.356Z,5.25
2023-04-16T19:41:33.987Z,5.43
2023-04-16T19:44:01.564Z,5.45
2023-04-16T19:46:32.193Z,4.97
2023-04-16T19:48:59.790Z,5.22
2023-04-16T19:51:30.317Z,4.68
2023-04-16T19:54:01.304Z,4.40
2023-04-16T19:56:29.014Z,4.57
2023-04-16T19:58:56.697Z,4.80
2023-04-16T20:01:25.238Z,5.30
2023-04-16T20:03:53.408Z,5.00
2023-04-16T20:06:21.635Z,4.50
2023-04-16T20:08:49.444Z,4.95
2023-04-16T20:11:19.225Z,4.50
2023-04-16T20:13:48.103Z,4.05
2023-04-16T20:16:15.849Z,5.20
2023-04-16T20:18:43.798Z,4.88
2023-04-16T20:21:11.645Z,5.80
2023-04-16T20:23:41.228Z,5.47
2023-04-16T20:26:15.977Z,5.88
2023-04-16T20:28:43.699Z,6.18
2023-04-16T20:31:11.779Z,4.75
2023-04-16T20:33:39.399Z,5.93
2023-04-16T20:36:08.018Z,4.75
2023-04-16T20:38:54.054Z,5.75
2023-04-16T20:41:22.734Z,5.25
2023-04-16T20:43:53.125Z,5.78
2023-04-16T20:46:24.566Z,5.30
2023-04-16T20:48:52.501Z,5.00
2023-04-16T20:51:20.029Z,5.15
2023-04-16T20:53:47.689Z,5.45
2023-04-16T20:56:15.222Z,5.00
2023-04-16T20:58:43.581Z,4.72
2023-04-16T21:01:11.369Z,5.72
2023-04-16T21:03:39.326Z,4.82
2023-04-16T21:06:07.147Z,5.40
2023-04-16T21:08:35.122Z,5.80
2023-04-16T21:11:02.821Z,5.25
2023-04-16T21:13:31.031Z,5.30
2023-04-16T21:15:58.753Z,4.95
2023-04-16T21:18:26.455Z,5.53
2023-04-16T21:20:54.189Z,5.35
2023-04-16T21:23:21.698Z,5.68
2023-04-16T21:25:49.339Z,4.85
2023-04-16T21:28:16.833Z,5.13
2023-04-16T21:30:44.352Z,5.63
2023-04-16T21:33:13.275Z,5.43
2023-04-16T21:35:41.166Z,5.20
2023-04-16T21:38:08.835Z,5.78
2023-04-16T21:40:36.674Z,5.53
2023-04-16T21:43:07.217Z,5.43
2023-04-16T21:45:36.783Z,5.35
2023-04-16T21:48:04.455Z,5.22
2023-04-16T21:50:32.251Z,5.18
2023-04-16T21:53:00.161Z,5.68
2023-04-16T21:55:27.687Z,5.93
2023-04-16T21:57:55.260Z,4.40
2023-04-16T22:00:23.053Z,5.03
2023-04-16T22:02:51.841Z,5.85
2023-04-16T22:05:20.190Z,4.97
2023-04-16T22:07:47.695Z,4.85
2023-04-16T22:10:18.275Z,5.22
2023-04-16T22:12:46.685Z,4.63
2023-04-16T22:15:17.748Z,5.13
2023-04-16T22:17:45.757Z,4.88
2023-04-16T22:20:13.608Z,4.88
2023-04-16T22:22:42.676Z,4.70
2023-04-16T22:25:12.965Z,4.50
2023-04-16T22:27:43.166Z,4.47
2023-04-16T22:30:11.528Z,5.13
2023-04-16T22:32:39.330Z,4.40
2023-04-16T22:35:07.412Z,4.85
2023-04-16T22:37:35.244Z,5.05
2023-04-16T22:40:02.870Z,4.28
2023-04-16T22:42:30.749Z,4.18
2023-04-16T22:44:58.602Z,4.43
2023-04-16T22:47:26.218Z,4.20
2023-04-16T22:49:54.039Z,4.75
2023-04-16T22:52:21.479Z,4.78
2023-04-16T22:54:49.182Z,4.60
2023-04-16T22:57:21.275Z,4.00
2023-04-16T22:59:48.699Z,4.03
2023-04-16T23:02:16.648Z,4.25
2023-04-16T23:04:48.143Z,4.05
2023-04-16T23:07:16.737Z,4.75
2023-04-16T23:09:45.841Z,4.72
2023-04-16T23:12:13.271Z,4.00
2023-04-16T23:14:46.154Z,3.85
2023-04-16T23:17:14.163Z,4.32
2023-04-16T23:19:42.214Z,4.15
2023-04-16T23:22:10.312Z,5.22
2023-04-16T23:24:37.824Z,5.05
2023-04-16T23:27:05.675Z,4.32
2023-04-16T23:29:33.207Z,4.30
2023-04-16T23:32:00.794Z,3.97
2023-04-16T23:34:31.212Z,3.85
2023-04-16T23:36:58.882Z,4.65
2023-04-16T23:39:26.443Z,4.85
2023-04-16T23:41:54.159Z,3.90
2023-04-16T23:44:21.688Z,4.50
2023-04-16T23:46:49.417Z,4.28
2023-04-16T23:49:16.883Z,3.90
2023-04-16T23:51:44.481Z,4.45
2023-04-16T23:54:12.341Z,4.30
2023-04-16T23:56:40.065Z,4.30
2023-04-16T23:59:11.029Z,4.30
